Terminal Aerodrome Forecast
Issued by NWS Cleveland, OH

Home | Current Version | Previous Version | Graphics & Text | Print | Product List | Glossary On
Versions: 1 2 3 4 5 6 7 8 9 10 11 12 13 14 15 16
000
FTUS41 KCLE 210200 AAA
TAFMFD
TAF AMD
KMFD 210218Z 2102/2124 VRB03KT P6SM OVC015
     FM210400 VRB03KT P6SM OVC012
      TEMPO 2110/2114 5SM BR
     FM211400 20004KT P6SM OVC020
     FM211800 18004KT P6SM BKN025
     FM212100 18005KT P6SM SCT025 BKN250=

USA.gov is the U.S. government's official web portal to all federal, state and local government web resources and services.